createdAt,value
2022-11-05T00:00:41.100Z,8.70
2022-11-05T00:09:00.939Z,9.00
2022-11-05T00:14:33.949Z,8.90
2022-11-05T00:19:29.757Z,9.00
2022-11-05T00:25:02.124Z,9.00
2022-11-05T00:27:32.477Z,9.50
2022-11-05T00:30:00.068Z,9.40
2022-11-05T00:39:51.573Z,9.10
2022-11-05T00:47:53.152Z,9.20
2022-11-05T00:57:52.900Z,9.10
2022-11-05T01:02:48.900Z,8.80
2022-11-05T01:25:00.742Z,8.50
2022-11-05T01:27:28.247Z,8.60
2022-11-05T01:29:55.765Z,8.70
2022-11-05T01:42:20.932Z,8.50
2022-11-05T01:44:53.851Z,8.50
2022-11-05T01:47:29.840Z,8.30
2022-11-05T01:54:56.169Z,8.50
2022-11-05T01:57:23.984Z,8.50
2022-11-05T01:59:55.809Z,8.40
2022-11-05T02:02:25.253Z,8.70
2022-11-05T02:07:25.611Z,8.40
2022-11-05T02:12:39.576Z,8.30
2022-11-05T02:15:10.585Z,8.30
2022-11-05T02:17:55.340Z,8.30
2022-11-05T02:23:06.069Z,8.20
2022-11-05T02:33:32.272Z,8.10
2022-11-05T02:36:18.593Z,8.00
2022-11-05T02:39:13.450Z,8.00
2022-11-05T02:41:49.904Z,8.00
2022-11-05T02:44:23.332Z,7.90
2022-11-05T02:47:14.188Z,7.90
2022-11-05T02:49:56.717Z,7.90
2022-11-05T02:52:37.568Z,7.90
2022-11-05T02:55:40.127Z,8.00
2022-11-05T02:58:08.594Z,8.00
2022-11-05T03:00:52.417Z,7.90
2022-11-05T03:03:27.881Z,7.90
2022-11-05T03:06:33.172Z,8.00
2022-11-05T03:09:19.523Z,8.00
2022-11-05T03:11:58.803Z,8.00
2022-11-05T03:15:01.250Z,8.10
2022-11-05T03:18:00.625Z,8.10
2022-11-05T03:20:39.731Z,8.10
2022-11-05T03:23:27.928Z,8.10
2022-11-05T03:26:25.290Z,8.10
2022-11-05T03:29:11.476Z,8.20
2022-11-05T03:31:41.011Z,8.20
2022-11-05T03:34:10.603Z,8.30
2022-11-05T03:36:43.746Z,8.20
2022-11-05T03:39:33.770Z,8.30
2022-11-05T03:42:04.372Z,8.30
2022-11-05T03:44:36.628Z,8.30
2022-11-05T03:47:09.030Z,8.40
2022-11-05T03:49:41.364Z,8.40
2022-11-05T03:52:15.125Z,8.40
2022-11-05T03:54:42.897Z,8.50
2022-11-05T03:57:29.483Z,8.50
2022-11-05T03:59:57.592Z,8.50
2022-11-05T04:02:27.178Z,8.50
2022-11-05T04:04:55.278Z,8.50
2022-11-05T04:10:28.314Z,8.50
2022-11-05T04:13:14.373Z,8.50
2022-11-05T04:16:00.680Z,8.50
2022-11-05T04:18:28.188Z,8.50
2022-11-05T04:21:14.200Z,8.50
2022-11-05T04:24:00.081Z,8.50
2022-11-05T04:26:27.657Z,8.50
2022-11-05T04:29:13.620Z,8.50
2022-11-05T04:31:41.165Z,8.50
2022-11-05T04:34:08.874Z,8.50
2022-11-05T04:36:36.396Z,8.50
2022-11-05T04:39:04.012Z,8.50
2022-11-05T04:41:31.527Z,8.50
2022-11-05T04:43:59.198Z,8.50
2022-11-05T04:46:26.761Z,8.40
2022-11-05T04:48:54.258Z,8.40
2022-11-05T04:51:21.811Z,8.40
2022-11-05T04:58:49.801Z,8.50
2022-11-05T05:03:50.813Z,8.50
2022-11-05T05:06:18.886Z,8.40
2022-11-05T05:08:51.282Z,8.60
2022-11-05T05:13:48.755Z,8.40
2022-11-05T05:16:22.409Z,8.60
2022-11-05T05:18:51.065Z,8.60
2022-11-05T05:24:17.065Z,8.60
2022-11-05T05:51:40.173Z,8.90
2022-11-05T05:54:07.920Z,8.50
2022-11-05T06:13:52.246Z,9.00
2022-11-05T06:33:40.049Z,8.80
2022-11-05T06:36:08.743Z,8.70
2022-11-05T06:51:04.081Z,8.60
2022-11-05T07:01:10.830Z,8.50
2022-11-05T07:03:39.298Z,8.40
2022-11-05T07:08:35.957Z,8.40
2022-11-05T07:11:04.112Z,8.60
2022-11-05T07:13:31.826Z,8.40
2022-11-05T07:23:22.754Z,8.10
2022-11-05T07:28:18.592Z,7.20
2022-11-05T07:30:46.196Z,8.40
2022-11-05T07:33:14.432Z,8.70
2022-11-05T07:35:42.135Z,8.50
2022-11-05T07:40:37.841Z,8.60
2022-11-05T07:43:05.581Z,8.40
2022-11-05T07:50:32.898Z,8.70
2022-11-05T07:53:02.240Z,8.60
2022-11-05T07:55:30.339Z,8.80
2022-11-05T07:57:58.315Z,8.60
2022-11-05T08:03:02.316Z,9.00
2022-11-05T08:08:04.648Z,9.00
2022-11-05T08:25:27.840Z,9.30
2022-11-05T08:35:29.653Z,9.30
2022-11-05T08:37:59.093Z,9.30
2022-11-05T08:40:26.962Z,9.30
2022-11-05T08:42:58.356Z,9.50
2022-11-05T08:45:27.534Z,9.60
2022-11-05T08:48:06.368Z,9.50
2022-11-05T08:50:35.030Z,9.50
2022-11-05T08:53:03.205Z,10.00
2022-11-05T08:55:30.865Z,9.60
2022-11-05T08:58:00.536Z,9.60
2022-11-05T09:00:30.826Z,9.60
2022-11-05T09:03:03.623Z,9.60
2022-11-05T09:05:37.518Z,9.50
2022-11-05T09:08:10.169Z,9.50
2022-11-05T09:10:38.167Z,9.60
2022-11-05T09:13:06.509Z,9.70
2022-11-05T09:15:35.802Z,9.70
2022-11-05T09:18:05.701Z,9.80
2022-11-05T09:20:33.578Z,9.50
2022-11-05T09:28:33.433Z,9.90
2022-11-05T09:35:59.647Z,10.10
2022-11-05T09:41:08.794Z,10.20
2022-11-05T09:43:53.712Z,10.30
2022-11-05T09:48:58.602Z,10.40
2022-11-05T09:53:59.636Z,10.40
2022-11-05T10:06:53.922Z,10.60
2022-11-05T10:14:46.765Z,10.90
2022-11-05T10:17:22.462Z,10.90
2022-11-05T10:20:10.892Z,11.00
2022-11-05T10:30:17.710Z,11.00
2022-11-05T10:32:46.911Z,11.20
2022-11-05T10:37:46.826Z,10.60
2022-11-05T10:45:39.103Z,11.00
2022-11-05T10:48:30.929Z,11.00
2022-11-05T11:03:49.174Z,10.80
2022-11-05T11:14:14.248Z,10.80
2022-11-05T11:19:23.403Z,10.80
2022-11-05T11:24:42.890Z,10.80
2022-11-05T11:32:19.666Z,10.80
2022-11-05T11:34:52.831Z,10.90
2022-11-05T11:37:26.907Z,10.90
2022-11-05T11:45:25.075Z,10.90
2022-11-05T11:50:39.676Z,10.80
2022-11-05T11:53:48.681Z,10.80
2022-11-05T11:56:19.321Z,10.90
2022-11-05T11:59:02.929Z,10.80
2022-11-05T12:01:51.325Z,10.90
2022-11-05T12:04:24.771Z,10.90
2022-11-05T12:07:05.132Z,10.90
2022-11-05T12:10:19.081Z,11.00
2022-11-05T12:13:05.156Z,11.00
2022-11-05T12:16:00.121Z,11.00
2022-11-05T12:19:11.951Z,11.00
2022-11-05T12:21:53.292Z,11.10
2022-11-05T12:24:29.860Z,11.10
2022-11-05T12:27:12.179Z,11.10
2022-11-05T12:30:02.133Z,11.20
2022-11-05T12:32:54.447Z,11.20
2022-11-05T12:35:22.111Z,11.20
2022-11-05T12:38:09.021Z,11.30
2022-11-05T12:41:05.672Z,11.30
2022-11-05T12:44:07.212Z,11.40
2022-11-05T12:46:38.525Z,11.40
2022-11-05T12:49:53.432Z,11.50
2022-11-05T12:52:32.661Z,11.50
2022-11-05T12:55:03.397Z,11.50
2022-11-05T12:57:36.144Z,11.50
2022-11-05T13:00:23.940Z,11.60
2022-11-05T13:03:20.618Z,11.60
2022-11-05T13:06:16.145Z,11.60
2022-11-05T13:08:47.312Z,11.70
2022-11-05T13:11:23.745Z,11.80
2022-11-05T13:13:57.009Z,11.80
2022-11-05T13:16:37.948Z,11.80
2022-11-05T13:19:13.064Z,11.90
2022-11-05T13:21:44.058Z,11.90
2022-11-05T13:24:18.877Z,12.00
2022-11-05T13:26:48.449Z,12.00
2022-11-05T13:29:34.194Z,12.00
2022-11-05T13:32:30.686Z,12.10
2022-11-05T13:35:01.261Z,12.20
2022-11-05T13:37:53.341Z,12.30
2022-11-05T13:40:28.851Z,12.30
2022-11-05T13:43:05.294Z,12.50
2022-11-05T13:46:02.820Z,12.50
2022-11-05T13:49:04.129Z,12.60
2022-11-05T13:51:39.593Z,12.70
2022-11-05T13:54:36.023Z,12.70
2022-11-05T13:57:30.874Z,12.80
2022-11-05T14:00:20.158Z,12.80
2022-11-05T14:02:52.397Z,12.80
2022-11-05T14:05:28.195Z,12.90
2022-11-05T14:07:57.846Z,12.80
2022-11-05T14:10:36.911Z,12.80
2022-11-05T14:13:31.980Z,12.90
2022-11-05T14:16:05.245Z,12.80
2022-11-05T14:18:40.830Z,12.70
2022-11-05T14:21:26.567Z,12.70
2022-11-05T14:26:33.768Z,12.70
2022-11-05T14:29:04.057Z,12.70
2022-11-05T14:32:23.807Z,12.70
2022-11-05T14:35:03.907Z,12.60
2022-11-05T14:37:37.139Z,12.60
2022-11-05T14:40:22.970Z,12.60
2022-11-05T14:42:56.286Z,12.60
2022-11-05T14:45:30.792Z,12.50
2022-11-05T14:48:04.390Z,12.40
2022-11-05T14:50:39.728Z,12.40
2022-11-05T14:53:33.710Z,12.30
2022-11-05T14:56:09.649Z,12.20
2022-11-05T14:58:39.937Z,12.20
2022-11-05T15:01:08.898Z,12.10
2022-11-05T15:03:45.839Z,12.10
2022-11-05T15:06:21.279Z,12.00
2022-11-05T15:08:48.807Z,11.90
2022-11-05T15:11:25.809Z,12.00
2022-11-05T15:13:56.545Z,11.90
2022-11-05T15:16:29.983Z,11.90
2022-11-05T15:18:58.169Z,11.90
2022-11-05T15:21:27.373Z,11.90
2022-11-05T15:26:56.862Z,11.90
2022-11-05T15:29:28.137Z,12.00
2022-11-05T15:31:56.438Z,12.00
2022-11-05T15:34:26.522Z,12.10
2022-11-05T15:36:56.809Z,12.00
2022-11-05T15:39:31.583Z,12.10
2022-11-05T15:42:04.505Z,12.10
2022-11-05T15:44:43.621Z,12.10
2022-11-05T15:47:24.612Z,12.10
2022-11-05T15:50:14.669Z,12.10
2022-11-05T15:52:53.302Z,12.10
2022-11-05T15:55:23.784Z,12.10
2022-11-05T15:58:04.541Z,12.20
2022-11-05T16:00:35.121Z,12.10
2022-11-05T16:03:16.208Z,12.20
2022-11-05T16:05:47.294Z,12.20
2022-11-05T16:08:19.489Z,12.20
2022-11-05T16:10:50.437Z,12.20
2022-11-05T16:13:33.368Z,12.10
2022-11-05T16:16:05.280Z,11.80
2022-11-05T16:18:40.290Z,11.60
2022-11-05T16:21:22.810Z,11.20
2022-11-05T16:23:57.931Z,11.20
2022-11-05T16:29:36.309Z,10.90
2022-11-05T16:32:16.277Z,10.90
2022-11-05T16:34:51.346Z,10.80
2022-11-05T16:37:22.677Z,10.80
2022-11-05T16:39:50.716Z,10.80
2022-11-05T16:42:24.536Z,10.80
2022-11-05T16:44:54.920Z,10.80
2022-11-05T16:47:23.226Z,10.70
2022-11-05T16:49:51.105Z,10.60
2022-11-05T16:52:19.676Z,10.60
2022-11-05T16:54:47.472Z,10.50
2022-11-05T16:57:28.399Z,10.50
2022-11-05T16:59:57.273Z,10.40
2022-11-05T17:02:25.470Z,10.40
2022-11-05T17:07:20.926Z,10.30
2022-11-05T17:09:48.489Z,10.20
2022-11-05T17:12:16.753Z,10.30
2022-11-05T17:14:44.504Z,10.30
2022-11-05T17:17:12.095Z,10.30
2022-11-05T17:19:42.389Z,10.30
2022-11-05T17:22:10.082Z,10.30
2022-11-05T17:24:38.935Z,10.30
2022-11-05T17:27:06.481Z,10.30
2022-11-05T17:29:34.217Z,10.30
2022-11-05T17:32:01.917Z,10.30
2022-11-05T17:34:29.412Z,10.30
2022-11-05T17:36:56.899Z,10.30
2022-11-05T17:39:30.291Z,10.30
2022-11-05T17:41:59.066Z,10.10
2022-11-05T17:44:26.733Z,9.90
2022-11-05T17:46:54.318Z,9.80
2022-11-05T17:49:21.834Z,9.70
2022-11-05T17:51:49.343Z,9.60
2022-11-05T17:54:16.940Z,9.50
2022-11-05T17:56:44.988Z,9.50
2022-11-05T17:59:13.322Z,9.50
2022-11-05T18:01:43.549Z,9.40
2022-11-05T18:04:12.294Z,9.30
2022-11-05T18:06:41.055Z,9.30
2022-11-05T18:09:10.183Z,9.30
2022-11-05T18:11:38.473Z,9.30
2022-11-05T18:16:34.879Z,9.20
2022-11-05T18:19:03.617Z,9.20
2022-11-05T18:21:31.502Z,9.00
2022-11-05T18:24:02.026Z,9.10
2022-11-05T18:26:29.557Z,9.10
2022-11-05T18:28:57.088Z,9.10
2022-11-05T18:31:24.630Z,9.00
2022-11-05T18:33:56.526Z,9.10
2022-11-05T18:36:30.998Z,9.00
2022-11-05T18:39:00.574Z,9.00
2022-11-05T18:41:28.996Z,9.00
2022-11-05T18:44:01.197Z,9.00
2022-11-05T18:46:56.470Z,8.90
2022-11-05T18:49:18.376Z,8.90
2022-11-05T18:51:46.441Z,8.70
2022-11-05T18:54:14.524Z,8.60
2022-11-05T18:56:45.512Z,8.60
2022-11-05T18:59:44.595Z,8.40
2022-11-05T19:02:05.102Z,8.30
2022-11-05T19:04:32.903Z,8.20
2022-11-05T19:07:04.856Z,8.10
2022-11-05T19:09:38.172Z,8.10
2022-11-05T19:12:07.169Z,8.00
2022-11-05T19:14:35.349Z,8.00
2022-11-05T19:17:04.326Z,7.80
2022-11-05T19:19:31.890Z,7.80
2022-11-05T19:21:59.438Z,7.70
2022-11-05T19:26:54.989Z,7.50
2022-11-05T19:29:22.749Z,7.50
2022-11-05T19:31:50.305Z,7.50
2022-11-05T19:34:17.935Z,7.40
2022-11-05T19:39:14.669Z,7.30
2022-11-05T19:41:42.486Z,7.30
2022-11-05T19:44:10.121Z,7.20
2022-11-05T19:46:37.731Z,7.10
2022-11-05T19:49:05.340Z,7.00
2022-11-05T19:51:33.265Z,7.00
2022-11-05T19:54:02.242Z,6.90
2022-11-05T19:56:32.927Z,6.80
2022-11-05T19:59:00.885Z,6.60
2022-11-05T20:01:30.237Z,6.50
2022-11-05T20:03:58.904Z,6.40
2022-11-05T20:06:31.961Z,6.40
2022-11-05T20:11:52.456Z,6.30
2022-11-05T20:14:20.437Z,6.20
2022-11-05T20:16:48.269Z,6.20
2022-11-05T20:19:18.613Z,6.10
2022-11-05T20:21:46.503Z,6.10
2022-11-05T20:24:22.367Z,5.80
2022-11-05T20:26:56.526Z,5.90
2022-11-05T20:29:29.090Z,5.70
2022-11-05T20:31:58.411Z,5.70
2022-11-05T20:34:25.925Z,5.70
2022-11-05T20:36:53.433Z,8.60
2022-11-05T20:39:21.761Z,5.70
2022-11-05T20:41:49.568Z,5.70
2022-11-05T20:44:17.180Z,5.70
2022-11-05T20:46:44.932Z,5.60
2022-11-05T20:49:12.670Z,5.60
2022-11-05T20:51:40.196Z,5.50
2022-11-05T20:54:07.952Z,5.50
2022-11-05T20:56:35.621Z,5.50
2022-11-05T20:59:04.041Z,5.40
2022-11-05T21:01:33.460Z,5.40
2022-11-05T21:04:02.929Z,5.20
2022-11-05T21:06:31.778Z,5.20
2022-11-05T21:08:59.457Z,5.10
2022-11-05T21:11:27.055Z,5.10
2022-11-05T21:13:55.003Z,5.10
2022-11-05T21:16:22.761Z,5.10
2022-11-05T21:18:50.649Z,5.00
2022-11-05T21:21:20.537Z,5.00
2022-11-05T21:23:48.467Z,4.90
2022-11-05T21:26:17.911Z,5.00
2022-11-05T21:28:45.569Z,5.00
2022-11-05T21:31:13.339Z,5.10
2022-11-05T21:33:41.013Z,5.10
2022-11-05T21:36:13.045Z,5.10
2022-11-05T21:38:41.585Z,5.20
2022-11-05T21:41:11.268Z,5.20
2022-11-05T21:43:40.571Z,5.20
2022-11-05T21:46:08.345Z,5.10
2022-11-05T21:48:36.542Z,5.10
2022-11-05T21:51:22.593Z,5.10
2022-11-05T21:54:08.521Z,5.10
2022-11-05T21:56:54.803Z,5.00
2022-11-05T21:59:42.197Z,5.00
2022-11-05T22:02:12.058Z,5.00
2022-11-05T22:04:41.728Z,5.00
2022-11-05T22:07:11.406Z,5.00
2022-11-05T22:09:39.244Z,5.00
2022-11-05T22:12:07.631Z,4.90
2022-11-05T22:14:35.386Z,4.90
2022-11-05T22:17:03.868Z,4.90
2022-11-05T22:19:31.598Z,4.80
2022-11-05T22:21:59.347Z,4.80
2022-11-05T22:24:31.913Z,4.70
2022-11-05T22:27:01.342Z,4.70
2022-11-05T22:29:29.217Z,4.70
2022-11-05T22:31:57.288Z,4.70
2022-11-05T22:34:25.969Z,4.80
2022-11-05T22:41:49.630Z,4.80
2022-11-05T22:44:17.339Z,4.80
2022-11-05T22:49:12.801Z,4.90
2022-11-05T22:51:40.869Z,4.90
2022-11-05T22:54:08.688Z,4.90
2022-11-05T22:56:39.595Z,4.90
2022-11-05T22:59:08.918Z,5.00
2022-11-05T23:01:36.822Z,5.10
2022-11-05T23:04:04.464Z,5.10
2022-11-05T23:06:52.214Z,5.10
2022-11-05T23:09:47.878Z,5.10
2022-11-05T23:12:20.009Z,5.10
2022-11-05T23:14:47.621Z,5.10
2022-11-05T23:17:34.051Z,5.10
2022-11-05T23:20:21.109Z,5.10
2022-11-05T23:23:08.030Z,5.20
2022-11-05T23:25:35.744Z,5.20
2022-11-05T23:28:10.240Z,5.20
2022-11-05T23:31:00.763Z,5.20
2022-11-05T23:33:34.118Z,5.20
2022-11-05T23:36:20.585Z,5.30
2022-11-05T23:38:48.165Z,5.30
2022-11-05T23:41:34.543Z,5.30
2022-11-05T23:44:20.562Z,5.30
2022-11-05T23:47:06.673Z,5.30
2022-11-05T23:49:34.213Z,5.40
2022-11-05T23:52:01.835Z,5.40
2022-11-05T23:54:29.501Z,5.40
2022-11-05T23:56:57.049Z,5.40
2022-11-05T23:59:24.573Z,5.40
